Main page
METAR-TAF:

METAR-TAF

Airports :

Larestan International Airport

Lar, Iran

latitude: 27-40-26N, longitude: 054-22-53E, elevation: 792 m

Current weather observation

The report was made 26 minutes ago, at 06:00 UTC
Calm wind
Temperature 13°C
Humidity 58%
Pressure 1023 hPa
Visibility 10 km or more
no clouds below 1500 m and no cumulonimbus

METAR: OISL 220600Z 00000KT CAVOK 13/05 Q1023

Time: 09:56 (06:26 UTC)

Forecast

The report was made 36 minutes ago, at 05:50 UTC
Forecast valid from 22 at 06 UTC to 23 at 12 UTC
Wind 8 kt from the East
Visibility: 8000 m
Few clouds at a height of 4000 ft
Becoming
from 22 at 22 UTC to 22 at 24 UTC
Few clouds at a height of 3500 ft
Broken clouds at a height of 10000 ft
Becoming
from 23 at 10 UTC to 23 at 12 UTC
Few clouds at a height of 4000 ft

TAF: OISL 220550Z 2206/2312 08008KT 8000 FEW040 BECMG 2222/2224 FEW035 BKN100 BECMG 2310/2312 FEW040

Weather observations and forecasts of more than 4000 airports (METAR and TAF reports).

The available stations are represented by yellow and red dots on the map.

Hover mouse over dot to see the name of the station.

Then click to see weather observations and forecasts.

To change the map : click on the green buttons with a black cross to zoom in, on the green button with a dash to zoom out, or on the green arrows for adjacent maps.


METAR-TAF: